To NAV CANADA Home Page Login to a new session Search on AWWS site Disclaimer Vers la page française équivalente Tips FAQ What's new on the site To the Forecasts and Observations / NOTAM section To "File a Flight Plan" website Publications and other links Update of the User's profile FIC Telephone Numbers My Weather Data Folder Route Weather Data Regional Weather Data Local Weather Data To the Forecasts and Observations / NOTAM section
Request Generated 12/03/2021 at 10:43:35 UTC . Weather information available at that time is displayed.

METAR/TAF

MONTREAL/ST-HUBERT/QC    (show WxCam)

METAR CYHU 031000Z AUTO 29020G27KT 9SM OVC037 M01/M09 A2973 RMK SLP070=
METAR CYHU 030900Z AUTO 31019G28KT 9SM OVC039 M01/M07 A2968 RMK PRESRR SLP052=
METAR CYHU 030800Z AUTO 30015G25KT 9SM OVC026 00/M05 A2962 RMK PRESRR SLP035=

TAF CYHU 030540Z 0306/0406 28015G25KT P6SM BKN030 TEMPO 0306/0315
BKN020
FM031500 28015G25KT P6SM FEW030
BECMG 0400/0402 29010KT
RMK FCST BASED ON AUTO OBS. NXT FCST BY 031200Z
Your time UTC time
Weather data provided by Environment Canada and NAV CANADA